KFFM

Fergus Falls Municipal-Einar Mickelson Field Airport

Fergus Falls, Minnesota, USA
METAR KFFM 211255Z AUTO 20004KT 10SM CLR M23/M25 A3048 RMK AO2
Observed Flight Rules
Feb-21 @ 12:55 UTC (14 minutes ago) Visual Flight Rules
Wind Visibility Clouds
200° at 4 knots 10 miles
  • Clear skies
Temperatures Readings
Current -23°C / -9°F
Dewpoint -25°C / -13°F
Humidity 84%
Altimeter 30.48" Hg
Pressure 1032 hPa
Elevation 361
METAR KFFM 211255Z AUTO 20004KT 10SM CLR M23/M25 A3048 RMK AO2
Observed Flight Rules
Feb-21 @ 12:55 UTC
(14 minutes ago)
VFR
Wind Visibility
200° at 4 knots 10 miles
Clouds
  • Clear skies
Temperature Dewpoint
-23°C / -9°F -25°C / -13°F
Humidity Altimeter Pressure
84% 30.48" Hg 1032 hPa